Time;durP1;ratioP1;P1;durP2;ratioP2;P2;SDS_P1;SDS_P2;PMS_P1;PMS_P2;Temp;Humidity;BMP_temperature;BMP_pressure;BME280_temperature;BME280_humidity;BME280_pressure;Samples;Min_cycle;Max_cycle;Signal;HPM_P1;HPM_P2
2022/10/27 00:02:08;;;;;;;12.63;2.35;;;;;;;;;;20997062;28;20056;-73
2022/10/27 00:12:09;;;;;;;11.23;2.50;;;;;;;;;;20978083;28;20107;-71
2022/10/27 00:22:11;;;;;;;8.05;2.42;;;;;;;;;;20995594;28;20060;-73
2022/10/27 00:32:13;;;;;;;6.90;2.17;;;;;;;;;;20997126;28;20439;-73
2022/10/27 00:42:15;;;;;;;6.80;1.80;;;;;;;;;;21010690;28;20082;-69
2022/10/27 00:52:22;;;;;;;5.05;2.17;;;;;;;;;;21010403;28;20562;-71
2022/10/27 01:02:23;;;;;;;7.68;2.25;;;;;;;;;;21010953;28;20538;-66
2022/10/27 01:12:25;;;;;;;8.23;2.58;;;;;;;;;;21009233;28;20052;-67
2022/10/27 01:22:27;;;;;;;5.47;2.40;;;;;;;;;;21008852;28;20114;-67
2022/10/27 01:32:50;;;;;;;10.50;2.55;;;;;;;;;;21007854;28;20187;-69
2022/10/27 01:43:00;;;;;;;10.77;2.75;;;;;;;;;;21005714;28;20057;-69
2022/10/27 01:53:03;;;;;;;9.32;3.17;;;;;;;;;;21003966;28;20049;-67
2022/10/27 02:03:13;;;;;;;9.98;3.28;;;;;;;;;;21089678;28;20056;-70
2022/10/27 02:13:18;;;;;;;7.70;2.53;;;;;;;;;;21088486;28;20075;-72
2022/10/27 02:23:26;;;;;;;6.72;2.53;;;;;;;;;;21086453;28;20397;-73
2022/10/27 02:33:28;;;;;;;7.07;2.20;;;;;;;;;;21086103;28;20136;-73
2022/10/27 02:43:31;;;;;;;6.80;2.63;;;;;;;;;;21085528;28;20491;-67
2022/10/27 02:53:36;;;;;;;5.03;1.98;;;;;;;;;;21084310;28;20142;-72
2022/10/27 03:03:38;;;;;;;4.32;1.90;;;;;;;;;;21084752;28;20055;-67
2022/10/27 03:13:41;;;;;;;5.38;2.08;;;;;;;;;;21083384;28;20087;-70
2022/10/27 03:23:44;;;;;;;5.28;2.38;;;;;;;;;;21083005;28;20414;-69
2022/10/27 03:33:46;;;;;;;8.50;1.80;;;;;;;;;;21081328;28;20139;-70
2022/10/27 03:43:48;;;;;;;5.90;2.00;;;;;;;;;;21080764;28;20113;-67
2022/10/27 03:53:50;;;;;;;8.07;1.65;;;;;;;;;;21081155;28;20201;-67
2022/10/27 04:03:52;;;;;;;8.55;1.83;;;;;;;;;;21080387;28;20052;-69
2022/10/27 04:13:54;;;;;;;9.15;2.70;;;;;;;;;;21080153;28;20048;-72
2022/10/27 04:23:57;;;;;;;10.57;2.65;;;;;;;;;;21079509;28;20488;-68
2022/10/27 04:33:59;;;;;;;12.65;2.50;;;;;;;;;;21079932;28;20495;-67
2022/10/27 04:44:02;;;;;;;8.15;2.20;;;;;;;;;;21078097;28;20081;-67
2022/10/27 04:54:05;;;;;;;10.32;2.80;;;;;;;;;;21077889;28;20052;-68
2022/10/27 05:04:07;;;;;;;6.80;2.30;;;;;;;;;;21078609;28;20098;-66
2022/10/27 05:14:09;;;;;;;10.98;2.47;;;;;;;;;;21077500;28;20048;-69
2022/10/27 05:24:10;;;;;;;7.18;2.30;;;;;;;;;;21083925;28;20055;-70
2022/10/27 05:34:12;;;;;;;8.85;2.88;;;;;;;;;;21091120;28;20052;-69
2022/10/27 05:44:14;;;;;;;7.93;2.90;;;;;;;;;;21090299;28;20122;-72
2022/10/27 05:54:16;;;;;;;8.63;2.15;;;;;;;;;;21090857;28;20119;-69
2022/10/27 06:04:18;;;;;;;8.90;2.72;;;;;;;;;;21090221;28;20044;-67
2022/10/27 06:14:19;;;;;;;8.02;2.38;;;;;;;;;;21087758;28;20048;-68
2022/10/27 06:24:21;;;;;;;13.73;3.15;;;;;;;;;;21086860;28;20052;-70
2022/10/27 06:34:23;;;;;;;12.63;2.78;;;;;;;;;;21085835;28;20052;-71
2022/10/27 06:44:25;;;;;;;20.75;3.33;;;;;;;;;;21084799;28;20083;-71
2022/10/27 06:54:27;;;;;;;15.95;2.83;;;;;;;;;;21085027;28;20510;-69
2022/10/27 07:04:29;;;;;;;17.85;3.65;;;;;;;;;;21083068;28;20080;-71
2022/10/27 07:14:31;;;;;;;23.05;4.30;;;;;;;;;;21083980;28;20052;-72
2022/10/27 07:24:33;;;;;;;18.02;2.88;;;;;;;;;;21083333;28;20044;-70
2022/10/27 07:34:35;;;;;;;24.23;4.57;;;;;;;;;;21081830;28;20054;-72
2022/10/27 07:44:37;;;;;;;47.95;18.00;;;;;;;;;;21078357;28;20206;-72
2022/10/27 07:54:39;;;;;;;30.58;5.45;;;;;;;;;;21080978;28;20152;-70
2022/10/27 08:04:41;;;;;;;28.13;4.55;;;;;;;;;;21079049;28;20075;-72
2022/10/27 08:14:43;;;;;;;17.00;3.97;;;;;;;;;;21078001;28;20048;-69
2022/10/27 08:24:45;;;;;;;21.00;3.30;;;;;;;;;;21077302;28;20463;-72
2022/10/27 08:34:47;;;;;;;24.20;3.65;;;;;;;;;;21077618;28;20055;-73
2022/10/27 08:44:56;;;;;;;13.10;4.05;;;;;;;;;;21077378;28;20087;-68
2022/10/27 08:55:16;;;;;;;20.42;4.30;;;;;;;;;;21079424;28;20131;-72
2022/10/27 09:05:27;;;;;;;13.05;4.70;;;;;;;;;;21092947;28;20400;-72
2022/10/27 09:15:41;;;;;;;16.23;4.70;;;;;;;;;;21091993;28;20044;-68
2022/10/27 09:25:44;;;;;;;29.60;5.07;;;;;;;;;;21089968;28;20139;-67
2022/10/27 09:35:47;;;;;;;19.33;4.80;;;;;;;;;;21089611;28;20083;-72
2022/10/27 09:46:01;;;;;;;12.02;4.10;;;;;;;;;;21089084;28;20052;-69
2022/10/27 09:56:05;;;;;;;16.13;3.17;;;;;;;;;;21088399;28;20083;-69
2022/10/27 10:06:23;;;;;;;15.35;3.30;;;;;;;;;;21087204;28;20094;-68
2022/10/27 10:16:27;;;;;;;13.15;2.78;;;;;;;;;;21086357;28;20044;-71
2022/10/27 10:26:29;;;;;;;16.48;2.95;;;;;;;;;;21085908;28;20123;-72
2022/10/27 10:36:36;;;;;;;15.63;2.80;;;;;;;;;;21084533;28;20052;-71
2022/10/27 10:46:56;;;;;;;12.02;3.42;;;;;;;;;;21084009;28;20138;-73
2022/10/27 10:56:58;;;;;;;17.55;3.63;;;;;;;;;;21083084;28;20151;-69
2022/10/27 11:07:04;;;;;;;12.27;2.70;;;;;;;;;;21081868;28;20075;-69
2022/10/27 11:17:06;;;;;;;14.88;2.92;;;;;;;;;;21081563;28;20404;-67
2022/10/27 11:27:18;;;;;;;11.20;2.55;;;;;;;;;;21081858;28;20430;-71
2022/10/27 11:37:28;;;;;;;12.82;3.35;;;;;;;;;;21081806;28;20500;-68
2022/10/27 11:47:40;;;;;;;14.20;3.03;;;;;;;;;;21079861;28;20411;-71
2022/10/27 11:57:54;;;;;;;14.18;3.28;;;;;;;;;;21080508;28;20048;-66
2022/10/27 12:08:14;;;;;;;16.45;3.75;;;;;;;;;;21079554;28;20052;-66
2022/10/27 12:18:21;;;;;;;18.45;3.60;;;;;;;;;;21078304;28;20054;-70
2022/10/27 12:28:25;;;;;;;16.27;3.07;;;;;;;;;;21078969;28;20502;-69
2022/10/27 12:38:27;;;;;;;15.50;3.65;;;;;;;;;;21095321;28;20044;-67
2022/10/27 12:48:29;;;;;;;11.90;3.22;;;;;;;;;;21094637;28;20044;-71
2022/10/27 12:58:34;;;;;;;11.10;3.53;;;;;;;;;;21093061;28;20063;-72
2022/10/27 13:08:44;;;;;;;20.35;3.95;;;;;;;;;;21093546;28;20079;-71
2022/10/27 13:19:04;;;;;;;18.02;4.13;;;;;;;;;;21092611;28;20048;-72
2022/10/27 13:29:36;;;;;;;11.63;3.47;;;;;;;;;;21091585;28;20072;-70
2022/10/27 13:39:43;;;;;;;17.23;4.88;;;;;;;;;;20913818;28;20049;-72
2022/10/27 13:49:48;;;;;;;28.67;5.07;;;;;;;;;;20912858;28;20049;-72
2022/10/27 13:59:51;;;;;;;11.68;3.72;;;;;;;;;;20913625;28;20111;-71
2022/10/27 14:09:54;;;;;;;17.27;3.83;;;;;;;;;;20959701;28;20055;-72
2022/10/27 14:20:01;;;;;;;15.88;3.67;;;;;;;;;;21086260;28;20139;-70
2022/10/27 14:30:04;;;;;;;14.07;2.97;;;;;;;;;;21084931;28;20050;-71
2022/10/27 14:40:13;;;;;;;11.40;3.00;;;;;;;;;;21086170;28;20054;-72
2022/10/27 14:50:24;;;;;;;9.10;2.53;;;;;;;;;;21084173;28;20113;-71
2022/10/27 15:00:26;;;;;;;15.90;2.88;;;;;;;;;;21082979;28;20048;-73
2022/10/27 15:10:33;;;;;;;17.98;3.13;;;;;;;;;;21083921;28;20051;-70
2022/10/27 15:20:35;;;;;;;;;;;;;;;;;;21083803;28;20055;-68
2022/10/27 15:30:40;;;;;;;30.15;5.80;;;;;;;;;;21081400;28;19926;-68
2022/10/27 15:40:43;;;;;;;13.93;3.35;;;;;;;;;;21083773;28;20064;-65
2022/10/27 15:50:56;;;;;;;15.07;3.40;;;;;;;;;;21081886;28;20151;-66
2022/10/27 16:01:02;;;;;;;13.65;3.50;;;;;;;;;;21081342;28;20450;-67
2022/10/27 16:11:04;;;;;;;6.07;2.58;;;;;;;;;;21077891;28;20055;-75
2022/10/27 16:21:12;;;;;;;8.55;2.58;;;;;;;;;;21079096;28;20071;-71
2022/10/27 16:31:16;;;;;;;16.52;2.80;;;;;;;;;;21079342;28;20491;-74
2022/10/27 16:41:28;;;;;;;10.07;2.33;;;;;;;;;;21078044;28;20056;-71
2022/10/27 16:51:30;;;;;;;12.73;3.03;;;;;;;;;;21073948;28;20127;-72
2022/10/27 17:01:32;;;;;;;13.85;2.17;;;;;;;;;;21070260;28;20080;-74
2022/10/27 17:11:35;;;;;;;9.38;2.65;;;;;;;;;;21061677;28;20055;-73
2022/10/27 17:21:37;;;;;;;16.13;3.95;;;;;;;;;;21067564;28;20559;-65
2022/10/27 17:31:39;;;;;;;15.88;4.13;;;;;;;;;;21082622;28;20044;-70
2022/10/27 17:41:42;;;;;;;15.43;4.55;;;;;;;;;;21080622;28;20109;-66
2022/10/27 17:51:44;;;;;;;19.85;4.35;;;;;;;;;;21072821;28;20514;-63
2022/10/27 18:01:48;;;;;;;11.80;3.60;;;;;;;;;;21079073;28;20082;-69
2022/10/27 18:11:50;;;;;;;21.17;4.10;;;;;;;;;;21068221;28;20054;-71
2022/10/27 18:21:52;;;;;;;19.15;4.78;;;;;;;;;;21082333;28;20145;-65
2022/10/27 18:31:54;;;;;;;24.08;7.90;;;;;;;;;;21069217;28;20044;-70
2022/10/27 18:41:56;;;;;;;17.58;4.32;;;;;;;;;;21076069;28;20056;-76
2022/10/27 18:51:59;;;;;;;20.08;4.05;;;;;;;;;;21083330;28;20044;-67
2022/10/27 19:02:01;;;;;;;15.77;4.85;;;;;;;;;;21089282;28;20048;-77
2022/10/27 19:12:03;;;;;;;22.50;4.75;;;;;;;;;;21082915;28;20047;-67
2022/10/27 19:22:06;;;;;;;17.20;5.22;;;;;;;;;;21083020;28;20051;-66
2022/10/27 19:32:08;;;;;;;15.48;6.68;;;;;;;;;;21083746;28;20054;-69
2022/10/27 19:42:10;;;;;;;22.08;7.88;;;;;;;;;;21068525;28;20484;-66
2022/10/27 19:52:12;;;;;;;36.95;17.85;;;;;;;;;;20997032;28;20040;-69
2022/10/27 20:02:14;;;;;;;30.75;8.57;;;;;;;;;;20995931;28;20136;-67
2022/10/27 20:12:16;;;;;;;23.17;9.02;;;;;;;;;;20995647;28;20128;-74
2022/10/27 20:22:18;;;;;;;16.35;6.20;;;;;;;;;;20995426;28;20056;-76
2022/10/27 20:32:21;;;;;;;12.77;3.72;;;;;;;;;;20995492;28;20049;-67
2022/10/27 20:42:23;;;;;;;14.88;3.95;;;;;;;;;;20994741;28;20512;-67
2022/10/27 20:52:25;;;;;;;14.65;3.67;;;;;;;;;;20999399;28;20172;-66
2022/10/27 21:02:27;;;;;;;13.23;3.95;;;;;;;;;;21010074;28;20067;-76
2022/10/27 21:12:30;;;;;;;29.23;12.13;;;;;;;;;;21010495;28;20088;-67
2022/10/27 21:22:32;;;;;;;16.88;3.72;;;;;;;;;;21014521;28;20412;-69
2022/10/27 21:32:35;;;;;;;14.90;3.53;;;;;;;;;;21012564;28;20080;-67
2022/10/27 21:42:37;;;;;;;10.73;3.10;;;;;;;;;;21000017;28;20055;-72
2022/10/27 21:52:39;;;;;;;12.25;3.67;;;;;;;;;;21005829;28;20057;-79
2022/10/27 22:02:42;;;;;;;13.80;3.33;;;;;;;;;;21005835;28;20052;-70
2022/10/27 22:12:44;;;;;;;12.63;3.97;;;;;;;;;;21004992;28;20052;-69
2022/10/27 22:22:46;;;;;;;13.55;3.55;;;;;;;;;;21003873;28;20078;-71
2022/10/27 22:32:49;;;;;;;12.15;3.47;;;;;;;;;;21003455;28;20048;-70
2022/10/27 22:42:51;;;;;;;16.60;3.22;;;;;;;;;;21011332;28;20060;-79
2022/10/27 22:52:53;;;;;;;13.73;3.05;;;;;;;;;;21005731;28;20499;-66
2022/10/27 23:02:55;;;;;;;10.15;3.03;;;;;;;;;;21001015;28;20044;-67
2022/10/27 23:12:59;;;;;;;14.57;3.55;;;;;;;;;;20999575;28;20052;-70
2022/10/27 23:23:01;;;;;;;9.43;2.65;;;;;;;;;;20998708;28;20051;-68
2022/10/27 23:33:03;;;;;;;17.85;3.15;;;;;;;;;;20997839;28;20080;-67
2022/10/27 23:43:05;;;;;;;10.50;2.83;;;;;;;;;;20997132;28;20491;-66
2022/10/27 23:53:07;;;;;;;12.13;2.65;;;;;;;;;;20997278;28;20040;-67
